Time;durP1;ratioP1;P1;durP2;ratioP2;P2;SDS_P1;SDS_P2;PMS_P1;PMS_P2;Temp;Humidity;BMP_temperature;BMP_pressure;BME280_temperature;BME280_humidity;BME280_pressure;Samples;Min_cycle;Max_cycle;Signal;HPM_P1;HPM_P2
2021/03/04 00:02:21;;;;;;;;;;;8.20;99.90;;;;;;4950909;29;19918;-69
2021/03/04 00:04:46;;;;;;;;;;;8.20;99.90;;;;;;4949143;29;20267;-69
2021/03/04 00:07:15;;;;;;;;;;;8.20;99.90;;;;;;4944266;29;19922;-69
2021/03/04 00:09:40;;;;;;;;;;;8.20;99.90;;;;;;4951139;29;19981;-69
2021/03/04 00:12:06;;;;;;;;;;;8.20;99.90;;;;;;4950761;28;19918;-69
2021/03/04 00:14:31;;;;;;;;;;;8.20;99.90;;;;;;4950945;28;19973;-68
2021/03/04 00:16:59;;;;;;;;;;;8.20;99.90;;;;;;4950741;29;19946;-69
2021/03/04 00:19:25;;;;;;;;;;;8.20;99.90;;;;;;4951190;29;20468;-69
2021/03/04 00:21:50;;;;;;;;;;;8.20;99.90;;;;;;4950660;29;19921;-69
2021/03/04 00:24:16;;;;;;;;;;;8.10;99.90;;;;;;4949526;29;19920;-69
2021/03/04 00:26:44;;;;;;;;;;;8.10;99.90;;;;;;4943801;28;19915;-68
2021/03/04 00:29:12;;;;;;;;;;;8.10;99.90;;;;;;4939570;29;20488;-68
2021/03/04 00:31:42;;;;;;;;;;;8.10;99.90;;;;;;4939299;29;19926;-68
2021/03/04 00:34:08;;;;;;;;;;;8.10;99.90;;;;;;4940643;29;19918;-69
2021/03/04 00:36:33;;;;;;;;;;;8.10;99.90;;;;;;4939753;29;19969;-69
2021/03/04 00:38:59;;;;;;;;;;;8.10;99.90;;;;;;4937963;29;19915;-68
2021/03/04 00:41:24;;;;;;;;;;;8.10;99.90;;;;;;4938961;29;19918;-68
2021/03/04 00:43:52;;;;;;;;;;;8.10;99.90;;;;;;4950810;29;20008;-68
2021/03/04 00:46:18;;;;;;;;;;;8.10;99.90;;;;;;4933661;29;19914;-68
2021/03/04 00:48:43;;;;;;;;;;;8.10;99.90;;;;;;4946764;29;19925;-68
2021/03/04 00:51:09;;;;;;;;;;;8.00;99.90;;;;;;4951291;29;19925;-68
2021/03/04 00:53:34;;;;;;;;;;;8.00;99.90;;;;;;4950768;28;19994;-68
2021/03/04 00:56:00;;;;;;;;;;;8.00;99.90;;;;;;4950368;29;19911;-68
2021/03/04 00:58:28;;;;;;;;;;;8.00;99.90;;;;;;4950037;28;19926;-68
2021/03/04 01:00:53;;;;;;;;;;;8.00;99.90;;;;;;4949407;29;19922;-68
2021/03/04 01:03:19;;;;;;;;;;;7.90;99.90;;;;;;4941845;28;20563;-68
2021/03/04 01:05:45;;;;;;;;;;;7.90;99.90;;;;;;4948668;28;19977;-68
2021/03/04 01:08:12;;;;;;;;;;;7.90;99.90;;;;;;4951388;28;19917;-68
2021/03/04 01:10:39;;;;;;;;;;;7.80;99.90;;;;;;4934765;29;20557;-68
2021/03/04 01:13:05;;;;;;;;;;;7.70;99.90;;;;;;4950920;29;20386;-68
2021/03/04 01:15:30;;;;;;;;;;;7.70;99.90;;;;;;4950966;29;19938;-68
2021/03/04 01:17:56;;;;;;;;;;;7.70;99.90;;;;;;4947492;29;19918;-68
2021/03/04 01:20:21;;;;;;;;;;;7.70;99.90;;;;;;4940257;29;19914;-68
2021/03/04 01:22:47;;;;;;;;;;;7.60;99.90;;;;;;4950123;28;19919;-68
2021/03/04 01:25:13;;;;;;;;;;;7.50;99.90;;;;;;4949970;29;19910;-68
2021/03/04 01:27:38;;;;;;;;;;;7.50;99.90;;;;;;4951084;28;20335;-68
2021/03/04 01:30:04;;;;;;;;;;;7.50;99.90;;;;;;4950452;29;19925;-69
2021/03/04 01:32:30;;;;;;;;;;;7.50;99.90;;;;;;4950628;28;19921;-69
2021/03/04 01:34:55;;;;;;;;;;;7.50;99.90;;;;;;4945779;29;20001;-69
2021/03/04 01:37:21;;;;;;;;;;;7.40;99.90;;;;;;4934755;29;20013;-69
2021/03/04 01:39:47;;;;;;;;;;;7.40;99.90;;;;;;4934933;29;19938;-69
2021/03/04 01:42:12;;;;;;;;;;;7.40;99.90;;;;;;4933633;29;20358;-69
2021/03/04 01:44:40;;;;;;;;;;;7.40;99.90;;;;;;4940172;29;19915;-69
2021/03/04 01:47:08;;;;;;;;;;;7.40;99.90;;;;;;4949475;29;19922;-69
2021/03/04 01:49:33;;;;;;;;;;;7.40;99.90;;;;;;4944853;29;19933;-69
2021/03/04 01:51:59;;;;;;;;;;;7.40;99.90;;;;;;4949525;28;19914;-69
2021/03/04 01:54:25;;;;;;;;;;;7.40;99.90;;;;;;4949144;29;19925;-69
2021/03/04 01:56:50;;;;;;;;;;;7.40;99.90;;;;;;4940216;29;19938;-69
2021/03/04 01:59:16;;;;;;;;;;;7.40;99.90;;;;;;4948634;29;19910;-70
2021/03/04 02:01:44;;;;;;;;;;;7.30;99.90;;;;;;4946951;29;19918;-69
2021/03/04 02:04:12;;;;;;;;;;;7.30;99.90;;;;;;4933514;29;19918;-70
2021/03/04 02:06:43;;;;;;;;;;;7.40;99.90;;;;;;4937661;29;19917;-69
2021/03/04 02:09:09;;;;;;;;;;;7.30;99.90;;;;;;4935725;29;19919;-69
2021/03/04 02:11:35;;;;;;;;;;;7.30;99.90;;;;;;4937554;29;19926;-69
2021/03/04 02:14:08;;;;;;;;;;;7.30;99.90;;;;;;4936886;29;19918;-69
2021/03/04 02:16:34;;;;;;;;;;;7.30;99.90;;;;;;4942656;29;20009;-69
2021/03/04 02:19:01;;;;;;;;;;;7.20;99.90;;;;;;4940465;29;20044;-69
2021/03/04 02:21:30;;;;;;;;;;;7.20;99.90;;;;;;4941864;29;19978;-69
2021/03/04 02:24:01;;;;;;;;;;;7.20;99.90;;;;;;4941407;29;19925;-69
2021/03/04 02:26:45;;;;;;;;;;;7.20;99.90;;;;;;4939205;29;19914;-69
2021/03/04 02:29:14;;;;;;;;;;;7.20;99.90;;;;;;4940630;29;19926;-69
2021/03/04 02:31:40;;;;;;;;;;;7.20;99.90;;;;;;4936731;29;20839;-69
2021/03/04 02:34:05;;;;;;;;;;;7.10;99.90;;;;;;4946946;29;19914;-69
2021/03/04 02:36:34;;;;;;;;;;;7.10;99.90;;;;;;4953012;28;20259;-69
2021/03/04 02:39:01;;;;;;;;;;;7.10;99.90;;;;;;4952859;28;20372;-69
2021/03/04 02:41:27;;;;;;;;;;;7.10;99.90;;;;;;4945149;29;19964;-69
2021/03/04 02:43:55;;;;;;;;;;;7.10;99.90;;;;;;4936317;29;20349;-69
2021/03/04 02:46:23;;;;;;;;;;;7.10;99.90;;;;;;4954135;28;19997;-69
2021/03/04 02:48:48;;;;;;;;;;;7.10;99.90;;;;;;4946993;29;19918;-69
2021/03/04 02:51:16;;;;;;;;;;;7.10;99.90;;;;;;4953125;29;20064;-69
2021/03/04 02:53:41;;;;;;;;;;;7.10;99.90;;;;;;4949307;28;20375;-69
2021/03/04 02:56:07;;;;;;;;;;;7.00;99.90;;;;;;4951777;29;19946;-69
2021/03/04 02:58:35;;;;;;;;;;;7.00;99.90;;;;;;4951783;29;19965;-69
2021/03/04 03:01:02;;;;;;;;;;;7.00;99.90;;;;;;4944237;29;19945;-69
2021/03/04 03:03:28;;;;;;;;;;;7.00;99.90;;;;;;4936604;29;19981;-69
2021/03/04 03:05:53;;;;;;;;;;;7.10;99.90;;;;;;4936519;29;19922;-69
2021/03/04 03:08:19;;;;;;;;;;;7.10;99.90;;;;;;4943872;29;20524;-69
2021/03/04 03:10:45;;;;;;;;;;;7.00;99.90;;;;;;4952300;29;20361;-69
2021/03/04 03:13:13;;;;;;;;;;;7.00;99.90;;;;;;4945046;28;20371;-69
2021/03/04 03:15:39;;;;;;;;;;;7.00;99.90;;;;;;4939569;29;20313;-69
2021/03/04 03:18:05;;;;;;;;;;;7.00;99.90;;;;;;4923377;29;20337;-69
2021/03/04 03:20:33;;;;;;;;;;;7.00;99.90;;;;;;4928625;29;19925;-69
2021/03/04 03:22:58;;;;;;;;;;;7.00;99.90;;;;;;4939736;29;20579;-69
2021/03/04 03:25:24;;;;;;;;;;;7.00;99.90;;;;;;4940896;29;19914;-70
2021/03/04 03:27:49;;;;;;;;;;;7.00;99.90;;;;;;4939457;29;20831;-69
2021/03/04 03:30:19;;;;;;;;;;;7.00;99.90;;;;;;4941365;29;20338;-69
2021/03/04 03:32:46;;;;;;;;;;;7.00;99.90;;;;;;4938823;29;19950;-69
2021/03/04 03:35:14;;;;;;;;;;;6.90;99.90;;;;;;4940403;28;20419;-69
2021/03/04 03:37:40;;;;;;;;;;;6.90;99.90;;;;;;4942779;29;19911;-69
2021/03/04 03:40:06;;;;;;;;;;;6.80;99.90;;;;;;4951479;29;19997;-69
2021/03/04 03:42:31;;;;;;;;;;;6.80;99.90;;;;;;4944486;29;19963;-69
2021/03/04 03:44:57;;;;;;;;;;;6.70;99.90;;;;;;4939744;29;20273;-69
2021/03/04 03:47:24;;;;;;;;;;;6.70;99.90;;;;;;4951484;29;19925;-69
2021/03/04 03:49:50;;;;;;;;;;;6.70;99.90;;;;;;4950217;29;19923;-69
2021/03/04 03:52:18;;;;;;;;;;;6.70;99.90;;;;;;4950293;29;19945;-69
2021/03/04 03:54:43;;;;;;;;;;;6.60;99.90;;;;;;4950959;29;19921;-69
2021/03/04 03:57:09;;;;;;;;;;;6.60;99.90;;;;;;4929730;29;19915;-69
2021/03/04 03:59:35;;;;;;;;;;;6.60;99.90;;;;;;4939887;29;19929;-69
2021/03/04 04:02:02;;;;;;;;;;;6.60;99.90;;;;;;4936695;29;19925;-69
2021/03/04 04:04:30;;;;;;;;;;;6.50;99.90;;;;;;4950704;29;20392;-69
2021/03/04 04:06:58;;;;;;;;;;;6.50;99.90;;;;;;4947536;29;19925;-69
2021/03/04 04:09:26;;;;;;;;;;;6.50;99.90;;;;;;4922575;29;19925;-69
2021/03/04 04:11:54;;;;;;;;;;;6.50;99.90;;;;;;4939092;29;19928;-69
2021/03/04 04:14:19;;;;;;;;;;;6.50;99.90;;;;;;4946157;29;19910;-69
2021/03/04 04:16:45;;;;;;;;;;;6.40;99.90;;;;;;4949623;29;19973;-69
2021/03/04 04:19:10;;;;;;;;;;;6.40;99.90;;;;;;4947853;28;19969;-69
2021/03/04 04:21:36;;;;;;;;;;;6.40;99.90;;;;;;4943316;29;20353;-69
2021/03/04 04:24:01;;;;;;;;;;;6.40;99.90;;;;;;4935219;29;20533;-69
2021/03/04 04:26:27;;;;;;;;;;;6.30;99.90;;;;;;4942998;29;19918;-69
2021/03/04 04:28:57;;;;;;;;;;;6.30;99.90;;;;;;4950126;29;19914;-69
2021/03/04 04:31:25;;;;;;;;;;;6.30;99.90;;;;;;4940972;29;19926;-69
2021/03/04 04:33:50;;;;;;;;;;;6.30;99.90;;;;;;4943766;29;20248;-69
2021/03/04 04:36:16;;;;;;;;;;;6.30;99.90;;;;;;4950118;28;20380;-69
2021/03/04 04:38:41;;;;;;;;;;;6.30;99.90;;;;;;4950579;28;19914;-69
2021/03/04 04:41:07;;;;;;;;;;;6.20;99.90;;;;;;4949245;28;19910;-69
2021/03/04 04:43:32;;;;;;;;;;;6.20;99.90;;;;;;4949280;28;19918;-70
2021/03/04 04:45:58;;;;;;;;;;;6.10;99.90;;;;;;4947012;28;20343;-69
2021/03/04 04:48:23;;;;;;;;;;;6.10;99.90;;;;;;4943029;29;19918;-69
2021/03/04 04:50:49;;;;;;;;;;;6.10;99.90;;;;;;4938352;29;19918;-69
2021/03/04 04:53:14;;;;;;;;;;;6.10;99.90;;;;;;4942027;29;21746;-69
2021/03/04 04:55:40;;;;;;;;;;;6.10;99.90;;;;;;4937450;28;20321;-69
2021/03/04 04:58:05;;;;;;;;;;;6.10;99.90;;;;;;4939638;29;20534;-69
2021/03/04 05:00:31;;;;;;;;;;;6.10;99.90;;;;;;4938553;29;20305;-69
2021/03/04 05:02:56;;;;;;;;;;;6.10;99.90;;;;;;4938935;29;19922;-69
2021/03/04 05:05:22;;;;;;;;;;;6.10;99.90;;;;;;4937258;29;19945;-69
2021/03/04 05:07:47;;;;;;;;;;;6.10;99.90;;;;;;4925860;29;20738;-69
2021/03/04 05:10:13;;;;;;;;;;;6.10;99.90;;;;;;4938903;29;20292;-69
2021/03/04 05:12:39;;;;;;;;;;;6.10;99.90;;;;;;4939281;29;20336;-69
2021/03/04 05:15:07;;;;;;;;;;;6.00;99.90;;;;;;4950577;29;19964;-69
2021/03/04 05:17:33;;;;;;;;;;;6.10;99.90;;;;;;4943229;29;19914;-69
2021/03/04 05:19:58;;;;;;;;;;;6.00;99.90;;;;;;4938649;29;19949;-69
2021/03/04 05:22:24;;;;;;;;;;;6.00;99.90;;;;;;4942134;29;19910;-69
2021/03/04 05:24:49;;;;;;;;;;;6.00;99.90;;;;;;4948126;29;19923;-70
2021/03/04 05:27:15;;;;;;;;;;;6.00;99.90;;;;;;4949782;29;19922;-69
2021/03/04 05:29:43;;;;;;;;;;;6.00;99.90;;;;;;4938698;29;19918;-69
2021/03/04 05:32:10;;;;;;;;;;;6.00;99.90;;;;;;4939349;29;20360;-69
2021/03/04 05:34:36;;;;;;;;;;;6.00;99.90;;;;;;4941330;29;19977;-69
2021/03/04 05:37:01;;;;;;;;;;;6.00;99.90;;;;;;4938825;29;19919;-69
2021/03/04 05:39:27;;;;;;;;;;;6.00;99.90;;;;;;4937888;29;19929;-69
2021/03/04 05:41:53;;;;;;;;;;;6.00;99.90;;;;;;4941221;29;20037;-69
2021/03/04 05:44:21;;;;;;;;;;;6.00;99.90;;;;;;4933338;29;19918;-69
2021/03/04 05:46:47;;;;;;;;;;;6.00;99.90;;;;;;4938002;28;19919;-69
2021/03/04 05:49:13;;;;;;;;;;;6.00;99.90;;;;;;4925232;29;19938;-69
2021/03/04 05:51:38;;;;;;;;;;;6.00;99.90;;;;;;4943264;28;19929;-69
2021/03/04 05:54:04;;;;;;;;;;;6.00;99.90;;;;;;4950349;29;19922;-69
2021/03/04 05:56:30;;;;;;;;;;;6.00;99.90;;;;;;4953117;28;19919;-69
2021/03/04 05:58:57;;;;;;;;;;;6.10;99.90;;;;;;4952439;29;19933;-69
2021/03/04 06:01:25;;;;;;;;;;;6.10;99.90;;;;;;4952093;29;19919;-69
2021/03/04 06:03:51;;;;;;;;;;;6.10;99.90;;;;;;4952600;29;20006;-69
2021/03/04 06:06:16;;;;;;;;;;;6.10;99.90;;;;;;4945084;29;20057;-69
2021/03/04 06:08:42;;;;;;;;;;;6.10;99.90;;;;;;4942123;29;20358;-69
2021/03/04 06:11:09;;;;;;;;;;;6.10;99.90;;;;;;4942305;29;19918;-69
2021/03/04 06:13:35;;;;;;;;;;;6.20;99.90;;;;;;4941401;29;20009;-69
2021/03/04 06:16:01;;;;;;;;;;;6.20;99.90;;;;;;4941435;29;19946;-69
2021/03/04 06:18:44;;;;;;;;;;;6.20;99.90;;;;;;4946077;29;19922;-69
2021/03/04 06:21:20;;;;;;;;;;;6.20;99.90;;;;;;4952772;29;19911;-69
2021/03/04 06:23:48;;;;;;;;;;;6.20;99.90;;;;;;4942788;28;19919;-69
2021/03/04 06:26:35;;;;;;;;;;;6.30;99.90;;;;;;4941437;28;19922;-69
2021/03/04 06:29:10;;;;;;;;;;;6.30;99.90;;;;;;4944081;29;19918;-69
2021/03/04 06:31:35;;;;;;;;;;;6.30;99.90;;;;;;4941917;29;19926;-69
2021/03/04 06:34:01;;;;;;;;;;;6.40;99.90;;;;;;4943513;29;19922;-69
2021/03/04 06:36:26;;;;;;;;;;;6.40;99.90;;;;;;4953012;28;19921;-69
2021/03/04 06:38:57;;;;;;;;;;;6.40;99.90;;;;;;4952187;29;19921;-69
2021/03/04 06:41:23;;;;;;;;;;;6.50;99.90;;;;;;4946896;29;19965;-69
2021/03/04 06:44:01;;;;;;;;;;;6.50;99.90;;;;;;4941733;29;19922;-69
2021/03/04 06:46:29;;;;;;;;;;;6.50;99.90;;;;;;4942024;29;19911;-69
2021/03/04 06:48:55;;;;;;;;;;;6.50;99.90;;;;;;4952938;29;19910;-69
2021/03/04 06:51:25;;;;;;;;;;;6.60;99.90;;;;;;4948410;29;19929;-69
2021/03/04 06:53:51;;;;;;;;;;;6.60;99.90;;;;;;4936508;29;20616;-69
2021/03/04 06:56:27;;;;;;;;;;;6.60;99.90;;;;;;4941214;28;19914;-69
2021/03/04 06:58:57;;;;;;;;;;;6.60;99.90;;;;;;4941411;29;19914;-70
2021/03/04 07:01:22;;;;;;;;;;;6.60;99.90;;;;;;4939935;28;20400;-69
2021/03/04 07:03:49;;;;;;;;;;;6.60;99.90;;;;;;4948652;28;20009;-69
2021/03/04 07:06:15;;;;;;;;;;;6.70;99.90;;;;;;4951973;28;19918;-70
2021/03/04 07:08:42;;;;;;;;;;;6.70;99.90;;;;;;4953158;29;19941;-70
2021/03/04 07:11:08;;;;;;;;;;;6.70;99.90;;;;;;4945974;29;19919;-70
2021/03/04 07:13:34;;;;;;;;;;;6.60;99.90;;;;;;4951832;29;19918;-69
2021/03/04 07:16:10;;;;;;;;;;;6.70;99.90;;;;;;4943408;28;20005;-69
2021/03/04 07:18:40;;;;;;;;;;;6.70;99.90;;;;;;4945856;28;19950;-69
2021/03/04 07:21:07;;;;;;;;;;;6.70;99.90;;;;;;4946968;29;19910;-69
2021/03/04 07:23:34;;;;;;;;;;;6.70;99.90;;;;;;4947162;29;20048;-69
2021/03/04 07:25:59;;;;;;;;;;;6.80;99.90;;;;;;4947296;29;19914;-70
2021/03/04 07:28:27;;;;;;;;;;;6.80;99.90;;;;;;4948741;29;20292;-69
2021/03/04 07:30:53;;;;;;;;;;;6.80;99.90;;;;;;4949432;29;19918;-69
2021/03/04 07:33:18;;;;;;;;;;;6.90;99.90;;;;;;4949447;29;19918;-70
2021/03/04 07:35:45;;;;;;;;;;;6.90;99.90;;;;;;4944801;29;19997;-69
2021/03/04 07:38:12;;;;;;;;;;;7.00;99.90;;;;;;4948000;29;19915;-69
2021/03/04 07:40:40;;;;;;;;;;;7.00;99.90;;;;;;4942888;29;20025;-70
2021/03/04 07:43:06;;;;;;;;;;;7.00;99.90;;;;;;4948673;29;20309;-69
2021/03/04 07:45:32;;;;;;;;;;;7.10;99.90;;;;;;4949420;29;20029;-69
2021/03/04 07:48:07;;;;;;;;;;;7.20;99.90;;;;;;4948665;28;19910;-69
2021/03/04 07:50:32;;;;;;;;;;;7.20;99.90;;;;;;4947270;29;19922;-69
2021/03/04 07:53:04;;;;;;;;;;;7.30;99.90;;;;;;4950113;28;19918;-69
2021/03/04 07:55:38;;;;;;;;;;;7.40;99.90;;;;;;4946216;29;19930;-69
2021/03/04 07:58:16;;;;;;;;;;;7.40;99.90;;;;;;4948708;29;19938;-70
2021/03/04 08:00:41;;;;;;;;;;;7.50;99.90;;;;;;4949011;29;19918;-70
2021/03/04 08:03:07;;;;;;;;;;;7.60;99.90;;;;;;4948334;29;19929;-71
2021/03/04 08:05:36;;;;;;;;;;;7.70;99.90;;;;;;4947680;29;19918;-70
2021/03/04 08:08:12;;;;;;;;;;;7.80;99.90;;;;;;4945474;29;20579;-71
2021/03/04 08:10:44;;;;;;;;;;;7.90;99.90;;;;;;4947693;29;19977;-70
2021/03/04 08:13:10;;;;;;;;;;;8.00;99.90;;;;;;4947378;29;19916;-70
2021/03/04 08:15:36;;;;;;;;;;;8.10;99.90;;;;;;4946808;29;19914;-69
2021/03/04 08:18:02;;;;;;;;;;;8.20;99.90;;;;;;4947766;29;19914;-69
2021/03/04 08:20:27;;;;;;;;;;;8.30;99.90;;;;;;4948106;28;19922;-70
2021/03/04 08:22:58;;;;;;;;;;;8.40;99.90;;;;;;4948836;28;19914;-69
2021/03/04 08:25:27;;;;;;;;;;;8.50;99.90;;;;;;4948662;29;19918;-73
2021/03/04 08:27:54;;;;;;;;;;;8.60;99.90;;;;;;4948294;29;20001;-69
2021/03/04 08:30:29;;;;;;;;;;;8.60;99.90;;;;;;4947633;29;20005;-69
2021/03/04 08:32:57;;;;;;;;;;;8.70;99.90;;;;;;4946780;29;20440;-70
2021/03/04 08:35:25;;;;;;;;;;;8.80;99.90;;;;;;4946692;28;19910;-70
2021/03/04 08:37:57;;;;;;;;;;;8.80;99.90;;;;;;4948234;28;19954;-69
2021/03/04 08:40:25;;;;;;;;;;;8.90;99.90;;;;;;4943091;29;19914;-69
2021/03/04 08:42:53;;;;;;;;;;;8.90;99.90;;;;;;4947817;29;19921;-69
2021/03/04 08:45:28;;;;;;;;;;;9.00;99.90;;;;;;4947813;29;19925;-70
2021/03/04 08:47:56;;;;;;;;;;;9.00;99.90;;;;;;4946047;29;19919;-70
2021/03/04 08:50:34;;;;;;;;;;;9.10;99.90;;;;;;4948467;29;19944;-69
2021/03/04 08:53:06;;;;;;;;;;;9.10;99.90;;;;;;4947879;28;19910;-70
2021/03/04 08:55:34;;;;;;;;;;;9.20;99.90;;;;;;4947039;28;19977;-69
2021/03/04 08:58:06;;;;;;;;;;;9.20;99.90;;;;;;4948457;29;19914;-70
2021/03/04 09:00:34;;;;;;;;;;;9.20;99.90;;;;;;4947642;29;19997;-69
2021/03/04 09:03:09;;;;;;;;;;;9.30;99.90;;;;;;4946738;29;19914;-69
2021/03/04 09:05:37;;;;;;;;;;;9.40;99.90;;;;;;4946690;29;19918;-69
2021/03/04 09:08:05;;;;;;;;;;;9.40;99.90;;;;;;4948612;28;19918;-69
2021/03/04 09:10:40;;;;;;;;;;;9.50;99.90;;;;;;4948258;29;20059;-69
2021/03/04 09:13:06;;;;;;;;;;;9.50;99.90;;;;;;4929675;29;19918;-69
2021/03/04 09:15:31;;;;;;;;;;;9.60;99.90;;;;;;4940810;29;19910;-69
2021/03/04 09:17:59;;;;;;;;;;;9.60;99.90;;;;;;4947669;28;20432;-69
2021/03/04 09:20:25;;;;;;;;;;;9.60;99.90;;;;;;4932255;29;19911;-70
2021/03/04 09:22:50;;;;;;;;;;;9.70;99.90;;;;;;4945642;29;19926;-69
2021/03/04 09:25:18;;;;;;;;;;;9.70;99.90;;;;;;4947198;29;20268;-69
2021/03/04 09:27:46;;;;;;;;;;;9.80;99.90;;;;;;4946978;29;19941;-69
2021/03/04 09:30:21;;;;;;;;;;;9.90;99.90;;;;;;4931881;29;20372;-69
2021/03/04 09:32:47;;;;;;;;;;;9.90;99.90;;;;;;4947484;28;19910;-69
2021/03/04 09:35:13;;;;;;;;;;;10.00;99.90;;;;;;4947888;29;19918;-69
2021/03/04 09:37:38;;;;;;;;;;;10.00;99.90;;;;;;4948639;28;20364;-69
2021/03/04 09:40:04;;;;;;;;;;;10.10;99.90;;;;;;4947151;29;19919;-70
2021/03/04 09:42:29;;;;;;;;;;;10.10;99.90;;;;;;4947036;28;20380;-69
2021/03/04 09:44:56;;;;;;;;;;;10.10;99.90;;;;;;4947961;29;20024;-69
2021/03/04 09:47:25;;;;;;;;;;;10.20;99.90;;;;;;4947222;29;20507;-70
2021/03/04 09:49:53;;;;;;;;;;;10.20;99.90;;;;;;4947984;29;19932;-69
2021/03/04 09:52:19;;;;;;;;;;;10.30;99.90;;;;;;4946879;29;19977;-69
2021/03/04 09:54:45;;;;;;;;;;;10.30;99.90;;;;;;4943782;29;20038;-69
2021/03/04 09:57:14;;;;;;;;;;;10.30;99.90;;;;;;4930738;29;20001;-69
2021/03/04 09:59:46;;;;;;;;;;;10.30;99.90;;;;;;4948319;29;20336;-69
2021/03/04 10:02:11;;;;;;;;;;;10.40;99.90;;;;;;4948141;29;19914;-69
2021/03/04 10:04:37;;;;;;;;;;;10.40;99.90;;;;;;4947942;29;20496;-69
2021/03/04 10:07:25;;;;;;;;;;;10.50;99.90;;;;;;4948094;29;20268;-69
2021/03/04 10:09:53;;;;;;;;;;;10.50;99.90;;;;;;4942832;28;19910;-69
2021/03/04 10:12:19;;;;;;;;;;;10.60;99.90;;;;;;4946260;29;19919;-69
2021/03/04 10:14:45;;;;;;;;;;;10.60;99.90;;;;;;4944529;28;19969;-69
2021/03/04 10:17:11;;;;;;;;;;;10.70;99.90;;;;;;4946560;29;19914;-70
2021/03/04 10:19:37;;;;;;;;;;;10.70;99.90;;;;;;4946621;29;19919;-69
2021/03/04 10:22:02;;;;;;;;;;;10.80;99.90;;;;;;4946119;29;19915;-70
2021/03/04 10:24:28;;;;;;;;;;;10.70;99.90;;;;;;4946303;29;20279;-69
2021/03/04 10:26:53;;;;;;;;;;;10.80;99.90;;;;;;4946848;29;19969;-69
2021/03/04 10:29:19;;;;;;;;;;;10.80;99.90;;;;;;4946330;29;19922;-69
2021/03/04 10:31:44;;;;;;;;;;;10.80;99.90;;;;;;4946522;29;19918;-70
2021/03/04 10:34:12;;;;;;;;;;;10.80;99.90;;;;;;4946561;28;19924;-71
2021/03/04 10:36:40;;;;;;;;;;;10.90;99.90;;;;;;4947734;29;20396;-71
2021/03/04 10:39:06;;;;;;;;;;;10.90;99.90;;;;;;4949700;29;20329;-72
2021/03/04 10:41:34;;;;;;;;;;;10.80;99.90;;;;;;4949635;28;19973;-69
2021/03/04 10:43:59;;;;;;;;;;;10.90;99.90;;;;;;4950927;29;19958;-67
2021/03/04 10:46:29;;;;;;;;;;;10.90;99.90;;;;;;4951269;29;19953;-70
2021/03/04 10:48:57;;;;;;;;;;;11.00;99.90;;;;;;4930858;29;19934;-70
2021/03/04 10:51:23;;;;;;;;;;;11.20;99.90;;;;;;4950308;28;19930;-70
2021/03/04 10:53:48;;;;;;;;;;;11.30;99.90;;;;;;4950119;29;20310;-67
2021/03/04 10:56:14;;;;;;;;;;;11.40;99.90;;;;;;4951023;29;19930;-67
2021/03/04 10:58:41;;;;;;;;;;;11.60;99.90;;;;;;4950829;29;19937;-67
2021/03/04 11:01:07;;;;;;;;;;;11.80;99.00;;;;;;4949946;29;20355;-69
2021/03/04 11:03:33;;;;;;;;;;;12.00;99.90;;;;;;4950064;29;19911;-69
2021/03/04 11:06:00;;;;;;;;;;;12.10;98.10;;;;;;4950483;29;19914;-67
2021/03/04 11:08:26;;;;;;;;;;;12.20;95.60;;;;;;4950581;29;20342;-70
2021/03/04 11:10:51;;;;;;;;;;;12.40;98.70;;;;;;4944535;29;19925;-69
2021/03/04 11:13:17;;;;;;;;;;;12.50;92.10;;;;;;4949315;29;19929;-69
2021/03/04 11:15:43;;;;;;;;;;;12.60;94.40;;;;;;4949827;28;20476;-69
2021/03/04 11:18:14;;;;;;;;;;;12.60;97.20;;;;;;4950251;29;19953;-69
2021/03/04 11:20:40;;;;;;;;;;;12.70;92.80;;;;;;4950132;29;20353;-69
2021/03/04 11:23:05;;;;;;;;;;;12.70;92.40;;;;;;4949930;29;19910;-69
2021/03/04 11:25:33;;;;;;;;;;;12.70;92.90;;;;;;4947962;28;20096;-70
2021/03/04 11:28:01;;;;;;;;;;;12.70;92.40;;;;;;4948439;29;19933;-70
2021/03/04 11:30:29;;;;;;;;;;;12.70;94.40;;;;;;4948192;29;19961;-69
2021/03/04 11:32:56;;;;;;;;;;;12.80;95.50;;;;;;4949829;29;19993;-69
2021/03/04 11:35:27;;;;;;;;;;;12.70;92.60;;;;;;4950967;29;19910;-67
2021/03/04 11:37:58;;;;;;;;;;;12.60;94.60;;;;;;4951089;28;19914;-67
2021/03/04 11:40:23;;;;;;;;;;;12.60;96.10;;;;;;4949879;29;19922;-68
2021/03/04 11:42:49;;;;;;;;;;;12.70;97.80;;;;;;4948999;29;19910;-67
2021/03/04 11:45:16;;;;;;;;;;;12.70;99.30;;;;;;4949946;29;20159;-67
2021/03/04 11:47:41;;;;;;;;;;;12.70;95.50;;;;;;4949920;28;19921;-67
2021/03/04 11:50:09;;;;;;;;;;;12.70;94.70;;;;;;4949615;28;19918;-67
2021/03/04 11:52:35;;;;;;;;;;;12.70;95.10;;;;;;4947396;29;20394;-67
2021/03/04 11:55:03;;;;;;;;;;;12.70;95.80;;;;;;4928117;29;19918;-67
2021/03/04 11:57:29;;;;;;;;;;;12.70;92.50;;;;;;4949260;29;19914;-67
2021/03/04 11:59:56;;;;;;;;;;;12.70;92.90;;;;;;4948624;29;19989;-67
2021/03/04 12:02:22;;;;;;;;;;;12.70;92.50;;;;;;4948311;28;20319;-67
2021/03/04 12:04:47;;;;;;;;;;;12.70;93.50;;;;;;4948779;29;19914;-67
2021/03/04 12:07:13;;;;;;;;;;;12.70;96.40;;;;;;4930528;29;20340;-68
2021/03/04 12:09:41;;;;;;;;;;;12.70;95.20;;;;;;4946386;29;20431;-68
2021/03/04 12:12:07;;;;;;;;;;;12.70;96.80;;;;;;4948052;29;19988;-67
2021/03/04 12:14:32;;;;;;;;;;;12.70;97.10;;;;;;4947497;29;20353;-67
2021/03/04 12:16:58;;;;;;;;;;;12.80;93.70;;;;;;4948825;29;20072;-67
2021/03/04 12:19:23;;;;;;;;;;;12.80;93.50;;;;;;4949377;29;19965;-67
2021/03/04 12:21:49;;;;;;;;;;;12.90;96.80;;;;;;4949794;28;19922;-68
2021/03/04 12:24:14;;;;;;;;;;;13.10;96.00;;;;;;4947606;28;19910;-67
2021/03/04 12:26:42;;;;;;;;;;;13.10;93.10;;;;;;4946656;29;19919;-67
2021/03/04 12:29:08;;;;;;;;;;;13.20;93.40;;;;;;4949479;29;20013;-67
2021/03/04 12:31:33;;;;;;;;;;;13.20;96.90;;;;;;4947797;29;20548;-68
2021/03/04 12:34:01;;;;;;;;;;;13.30;94.40;;;;;;4949187;29;20387;-67
2021/03/04 12:36:29;;;;;;;;;;;13.30;91.00;;;;;;4947054;29;19997;-67
2021/03/04 12:38:56;;;;;;;;;;;13.30;90.90;;;;;;4947415;29;20414;-67
2021/03/04 12:41:22;;;;;;;;;;;13.20;86.30;;;;;;4947505;29;19914;-67
2021/03/04 12:43:50;;;;;;;;;;;13.20;89.70;;;;;;4948327;29;19914;-67
2021/03/04 12:46:15;;;;;;;;;;;13.30;90.30;;;;;;4949595;29;19937;-67
2021/03/04 12:48:41;;;;;;;;;;;13.50;94.40;;;;;;4947811;29;19910;-67
2021/03/04 12:51:12;;;;;;;;;;;13.60;95.50;;;;;;4948706;29;19918;-67
2021/03/04 12:53:38;;;;;;;;;;;13.60;91.20;;;;;;4946653;29;19929;-67
2021/03/04 12:56:04;;;;;;;;;;;13.60;92.60;;;;;;4947426;28;19915;-71
2021/03/04 12:58:29;;;;;;;;;;;13.60;82.40;;;;;;4946778;28;20324;-70
2021/03/04 13:00:55;;;;;;;;;;;13.60;86.40;;;;;;4948281;29;19911;-70
2021/03/04 13:03:20;;;;;;;;;;;13.70;84.40;;;;;;4947120;29;19910;-70
2021/03/04 13:05:46;;;;;;;;;;;13.80;87.40;;;;;;4947259;29;20141;-70
2021/03/04 13:08:12;;;;;;;;;;;13.60;83.10;;;;;;4948650;29;19919;-70
2021/03/04 13:10:37;;;;;;;;;;;13.60;81.80;;;;;;4946916;29;19966;-67
2021/03/04 13:13:03;;;;;;;;;;;13.60;87.70;;;;;;4946368;29;20428;-67
2021/03/04 13:15:31;;;;;;;;;;;13.60;80.00;;;;;;4948723;28;19977;-67
2021/03/04 13:17:57;;;;;;;;;;;13.50;83.60;;;;;;4948241;29;19981;-67
2021/03/04 13:20:22;;;;;;;;;;;13.50;80.90;;;;;;4948681;28;20488;-67
2021/03/04 13:22:48;;;;;;;;;;;13.40;82.10;;;;;;4948723;28;20390;-68
2021/03/04 13:25:13;;;;;;;;;;;13.30;79.70;;;;;;4945987;29;19918;-67
2021/03/04 13:27:39;;;;;;;;;;;13.20;82.80;;;;;;4946839;28;19914;-68
2021/03/04 13:30:07;;;;;;;;;;;13.20;83.50;;;;;;4948089;29;19943;-68
2021/03/04 13:32:35;;;;;;;;;;;13.10;83.80;;;;;;4942000;28;19926;-68
2021/03/04 13:35:03;;;;;;;;;;;13.10;84.70;;;;;;4947302;28;19910;-68
2021/03/04 13:37:29;;;;;;;;;;;13.10;85.10;;;;;;4946913;29;19990;-67
2021/03/04 13:39:55;;;;;;;;;;;13.10;83.80;;;;;;4947133;29;20023;-68
2021/03/04 13:42:20;;;;;;;;;;;13.10;86.00;;;;;;4947974;29;19929;-68
2021/03/04 13:44:46;;;;;;;;;;;13.10;84.10;;;;;;4945910;28;20009;-68
2021/03/04 13:47:12;;;;;;;;;;;13.10;88.50;;;;;;4947046;29;19918;-67
2021/03/04 13:49:37;;;;;;;;;;;13.00;84.90;;;;;;4946863;29;20344;-67
2021/03/04 13:52:03;;;;;;;;;;;13.00;84.80;;;;;;4947835;29;20367;-68
2021/03/04 13:54:28;;;;;;;;;;;12.90;85.50;;;;;;4947022;28;19914;-67
2021/03/04 13:56:56;;;;;;;;;;;12.70;85.80;;;;;;4947901;28;20482;-67
2021/03/04 13:59:24;;;;;;;;;;;12.60;87.70;;;;;;4947242;28;19945;-67
2021/03/04 14:01:50;;;;;;;;;;;12.60;90.50;;;;;;4946161;29;19914;-68
2021/03/04 14:04:15;;;;;;;;;;;12.70;91.80;;;;;;4948709;28;20382;-68
2021/03/04 14:14:52;;;;;;;;;;;12.60;90.60;;;;;;3417166;23;19927;-74
2021/03/04 14:17:17;;;;;;;;;;;12.50;91.30;;;;;;4958717;28;20005;-78
2021/03/04 14:19:45;;;;;;;;;;;12.40;92.00;;;;;;4950251;28;20013;-77
2021/03/04 14:22:13;;;;;;;;;;;12.50;92.50;;;;;;4946802;28;19961;-77
2021/03/04 14:24:38;;;;;;;;;;;12.40;91.40;;;;;;4950378;29;19911;-76
2021/03/04 14:27:07;;;;;;;;;;;12.40;91.00;;;;;;4950088;28;19981;-77
2021/03/04 14:29:33;;;;;;;;;;;12.40;92.60;;;;;;4947511;29;19917;-73
2021/03/04 14:32:00;;;;;;;;;;;12.40;91.50;;;;;;4948656;28;20021;-74
2021/03/04 14:34:26;;;;;;;;;;;12.40;91.50;;;;;;4958398;28;19926;-74